createdAt,value
2023-01-02T00:00:24.392Z,100486.09
2023-01-02T00:01:28.026Z,100488.03
2023-01-02T00:02:32.857Z,100484.41
2023-01-02T00:03:35.209Z,100482.75
2023-01-02T00:04:37.477Z,100487.47
2023-01-02T00:05:39.762Z,100486.66
2023-01-02T00:06:41.954Z,100483.03
2023-01-02T00:07:44.131Z,100481.34
2023-01-02T00:08:46.336Z,100475.81
2023-01-02T00:09:48.769Z,100479.72
2023-01-02T00:10:53.083Z,100478.84
2023-01-02T00:11:55.422Z,100474.41
2023-01-02T00:12:57.625Z,100476.38
2023-01-02T00:14:00.178Z,100480.25
2023-01-02T00:15:04.504Z,100476.66
2023-01-02T00:16:07.391Z,100479.41
2023-01-02T00:17:09.604Z,100476.66
2023-01-02T00:18:11.783Z,100486.88
2023-01-02T00:19:13.929Z,100486.88
2023-01-02T00:20:16.144Z,100471.38
2023-01-02T00:21:19.018Z,100476.06
2023-01-02T00:22:21.191Z,100478.84
2023-01-02T00:23:23.473Z,100472.47
2023-01-02T00:24:25.640Z,100466.94
2023-01-02T00:25:27.929Z,100462.50
2023-01-02T00:26:30.668Z,100468.84
2023-01-02T00:27:32.920Z,100466.09
2023-01-02T00:28:36.884Z,100468.84
2023-01-02T00:29:39.024Z,100470.81
2023-01-02T00:30:41.237Z,100468.03
2023-01-02T00:31:43.464Z,100458.91
2023-01-02T00:32:45.665Z,100460.00
2023-01-02T00:33:47.855Z,100451.97
2023-01-02T00:34:49.982Z,100454.72
2023-01-02T00:35:52.151Z,100445.56
2023-01-02T00:36:54.297Z,100447.50
2023-01-02T00:37:56.499Z,100447.25
2023-01-02T00:38:58.727Z,100442.78
2023-01-02T00:40:00.963Z,100441.69
2023-01-02T00:41:04.025Z,100433.66
2023-01-02T00:42:06.265Z,100443.06
2023-01-02T00:43:08.481Z,100438.34
2023-01-02T00:44:10.645Z,100443.88
2023-01-02T00:45:12.865Z,100428.38
2023-01-02T00:46:16.042Z,100425.88
2023-01-02T00:47:19.274Z,100429.50
2023-01-02T00:48:22.400Z,100430.31
2023-01-02T00:49:24.650Z,100425.88
2023-01-02T00:50:26.851Z,100429.78
2023-01-02T00:51:29.024Z,100433.38
2023-01-02T00:52:31.237Z,100430.59
2023-01-02T00:53:33.457Z,100425.31
2023-01-02T00:54:35.639Z,100425.31
2023-01-02T00:55:37.822Z,100421.72
2023-01-02T00:56:40.001Z,100427.53
2023-01-02T00:57:42.264Z,100431.16
2023-01-02T00:58:44.435Z,100423.94
2023-01-02T00:59:46.623Z,100431.44
2023-01-02T01:00:50.279Z,100436.13
2023-01-02T01:01:52.773Z,100427.81
2023-01-02T01:02:59.893Z,100432.25
2023-01-02T01:04:02.134Z,100423.38
2023-01-02T01:05:07.518Z,100423.38
2023-01-02T01:06:10.864Z,100425.31
2023-01-02T01:07:13.356Z,100422.53
2023-01-02T01:08:15.591Z,100426.41
2023-01-02T01:09:18.267Z,100423.94
2023-01-02T01:10:20.815Z,100421.16
2023-01-02T01:11:22.956Z,100413.94
2023-01-02T01:12:25.157Z,100415.88
2023-01-02T01:13:27.342Z,100418.66
2023-01-02T01:14:29.513Z,100414.22
2023-01-02T01:15:33.630Z,100420.84
2023-01-02T01:16:35.829Z,100421.97
2023-01-02T01:17:38.508Z,100416.41
2023-01-02T01:18:41.705Z,100420.84
2023-01-02T01:19:43.957Z,100421.97
2023-01-02T01:20:47.374Z,100413.66
2023-01-02T01:21:49.590Z,100421.13
2023-01-02T01:22:52.027Z,100416.41
2023-01-02T01:23:55.896Z,100417.53
2023-01-02T01:24:58.059Z,100421.13
2023-01-02T01:26:04.006Z,100423.09
2023-01-02T01:27:08.515Z,100424.72
2023-01-02T01:28:10.674Z,100425.88
2023-01-02T01:29:12.844Z,100423.91
2023-01-02T01:30:15.211Z,100423.91
2023-01-02T01:31:18.262Z,100429.16
2023-01-02T01:32:20.528Z,100423.09
2023-01-02T01:33:22.749Z,100421.97
2023-01-02T01:34:24.904Z,100426.69
2023-01-02T01:35:27.167Z,100423.09
2023-01-02T01:36:29.411Z,100430.28
2023-01-02T01:37:31.572Z,100428.34
2023-01-02T01:38:34.618Z,100424.72
2023-01-02T01:39:36.769Z,100426.41
2023-01-02T01:40:40.125Z,100420.03
2023-01-02T01:41:42.353Z,100427.25
2023-01-02T01:42:44.532Z,100426.97
2023-01-02T01:43:52.319Z,100425.03
2023-01-02T01:44:55.452Z,100429.75
2023-01-02T01:45:57.747Z,100418.66
2023-01-02T01:46:59.933Z,100425.88
2023-01-02T01:48:02.475Z,100421.16
2023-01-02T01:49:13.488Z,100421.16
2023-01-02T01:50:29.751Z,100408.97
2023-01-02T01:51:36.510Z,100414.22
2023-01-02T01:52:45.893Z,100418.66
2023-01-02T01:53:52.621Z,100422.53
2023-01-02T01:54:58.862Z,100422.25
2023-01-02T01:56:05.308Z,100428.91
2023-01-02T01:57:25.913Z,100422.25
2023-01-02T01:58:42.025Z,100429.47
2023-01-02T01:59:45.297Z,100422.84
2023-01-02T02:00:48.230Z,100418.97
2023-01-02T02:01:51.548Z,100414.25
2023-01-02T02:03:01.131Z,100418.97
2023-01-02T02:04:03.727Z,100422.56
2023-01-02T02:05:09.591Z,100421.44
2023-01-02T02:06:12.703Z,100419.50
2023-01-02T02:07:16.126Z,100416.44
2023-01-02T02:08:39.991Z,100420.31
2023-01-02T02:09:52.873Z,100418.13
2023-01-02T02:11:00.584Z,100411.75
2023-01-02T02:12:06.692Z,100407.84
2023-01-02T02:13:08.898Z,100412.56
2023-01-02T02:14:11.132Z,100409.81
2023-01-02T02:15:18.096Z,100415.91
2023-01-02T02:16:26.935Z,100408.69
2023-01-02T02:17:35.035Z,100407.31
2023-01-02T02:18:51.496Z,100404.56
2023-01-02T02:20:06.665Z,100405.94
2023-01-02T02:21:20.745Z,100392.06
2023-01-02T02:22:43.263Z,100396.53
2023-01-02T02:23:59.170Z,100397.34
2023-01-02T02:25:31.447Z,100406.47
2023-01-02T02:27:20.087Z,100407.03
2023-01-02T02:28:52.818Z,100406.75
2023-01-02T02:30:14.274Z,100394.56
2023-01-02T02:31:42.789Z,100401.78
2023-01-02T02:33:03.895Z,100405.38
2023-01-02T02:34:55.568Z,100400.41
2023-01-02T02:36:51.166Z,100407.63
2023-01-02T02:38:11.581Z,100402.88
2023-01-02T02:39:33.749Z,100402.59
2023-01-02T02:40:56.385Z,100399.84
2023-01-02T02:42:31.701Z,100402.59
2023-01-02T02:43:51.259Z,100391.53
2023-01-02T02:45:14.699Z,100391.25
2023-01-02T02:46:48.427Z,100389.03
2023-01-02T02:48:01.439Z,100387.06
2023-01-02T02:49:14.003Z,100390.69
2023-01-02T02:50:29.549Z,100384.88
2023-01-02T02:51:56.520Z,100382.09
2023-01-02T02:53:09.213Z,100377.38
2023-01-02T02:54:21.553Z,100377.38
2023-01-02T02:55:30.437Z,100384.59
2023-01-02T02:56:32.787Z,100376.28
2023-01-02T02:57:36.207Z,100368.75
2023-01-02T02:58:40.986Z,100367.66
2023-01-02T02:59:43.485Z,100372.09
2023-01-02T03:00:45.900Z,100361.00
2023-01-02T03:01:48.591Z,100361.00
2023-01-02T03:02:52.493Z,100358.25
2023-01-02T03:03:54.828Z,100361.28
2023-01-02T03:05:02.809Z,100354.06
2023-01-02T03:06:12.731Z,100356.56
2023-01-02T03:07:37.089Z,100354.34
2023-01-02T03:08:47.744Z,100355.19
2023-01-02T03:10:23.397Z,100352.13
2023-01-02T03:11:39.556Z,100361.56
2023-01-02T03:12:59.869Z,100362.97
2023-01-02T03:14:07.780Z,100366.56
2023-01-02T03:15:33.176Z,100361.00
2023-01-02T03:16:43.329Z,100367.94
2023-01-02T03:18:10.174Z,100356.00
2023-01-02T03:19:23.257Z,100365.97
2023-01-02T03:20:31.601Z,100372.38
2023-01-02T03:21:46.472Z,100373.19
2023-01-02T03:22:53.925Z,100366.84
2023-01-02T03:24:00.818Z,100362.94
2023-01-02T03:25:04.223Z,100355.44
2023-01-02T03:26:07.287Z,100349.06
2023-01-02T03:27:14.901Z,100349.91
2023-01-02T03:28:20.329Z,100344.34
2023-01-02T03:29:30.600Z,100339.91
2023-01-02T03:30:35.705Z,100332.69
2023-01-02T03:31:43.429Z,100334.38
2023-01-02T03:33:00.308Z,100332.69
2023-01-02T03:34:10.181Z,100336.31
2023-01-02T03:35:18.157Z,100336.03
2023-01-02T03:36:25.722Z,100341.59
2023-01-02T03:37:32.969Z,100340.47
2023-01-02T03:38:44.385Z,100341.28
2023-01-02T03:39:54.826Z,100335.19
2023-01-02T03:41:14.681Z,100336.03
2023-01-02T03:42:25.358Z,100341.59
2023-01-02T03:43:30.778Z,100336.03
2023-01-02T03:44:43.586Z,100338.81
2023-01-02T03:46:06.834Z,100335.19
2023-01-02T03:47:49.229Z,100340.72
2023-01-02T03:49:08.833Z,100324.38
2023-01-02T03:50:20.933Z,100331.59
2023-01-02T03:51:23.227Z,100329.63
2023-01-02T03:52:26.273Z,100325.22
2023-01-02T03:53:32.134Z,100324.38
2023-01-02T03:54:34.718Z,100314.13
2023-01-02T03:55:41.846Z,100316.03
2023-01-02T03:57:03.760Z,100316.91
2023-01-02T03:58:05.890Z,100307.72
2023-01-02T03:59:33.954Z,100302.47
2023-01-02T04:00:43.226Z,100307.19
2023-01-02T04:01:55.210Z,100311.34
2023-01-02T04:03:22.220Z,100304.72
2023-01-02T04:04:50.263Z,100305.53
2023-01-02T04:06:00.329Z,100313.84
2023-01-02T04:07:11.486Z,100304.41
2023-01-02T04:08:28.574Z,100302.47
2023-01-02T04:09:33.841Z,100312.44
2023-01-02T04:10:38.183Z,100316.03
2023-01-02T04:11:44.633Z,100311.34
2023-01-02T04:12:52.318Z,100310.50
2023-01-02T04:14:00.482Z,100310.22
2023-01-02T04:15:08.240Z,100307.44
2023-01-02T04:16:17.662Z,100304.41
2023-01-02T04:17:23.420Z,100301.63
2023-01-02T04:18:29.693Z,100302.16
2023-01-02T04:19:36.965Z,100310.50
2023-01-02T04:20:46.467Z,100312.97
2023-01-02T04:21:51.846Z,100302.72
2023-01-02T04:23:03.155Z,100304.66
2023-01-02T04:24:11.183Z,100309.66
2023-01-02T04:25:17.144Z,100314.38
2023-01-02T04:26:28.893Z,100318.81
2023-01-02T04:27:38.359Z,100307.72
2023-01-02T04:28:40.680Z,100315.75
2023-01-02T04:29:42.881Z,100307.41
2023-01-02T04:30:49.964Z,100313.81
2023-01-02T04:32:03.680Z,100311.03
2023-01-02T04:33:09.581Z,100318.25
2023-01-02T04:34:15.463Z,100310.75
2023-01-02T04:35:22.078Z,100306.88
2023-01-02T04:36:24.748Z,100315.19
2023-01-02T04:37:35.825Z,100319.66
2023-01-02T04:38:38.682Z,100317.97
2023-01-02T04:39:40.901Z,100314.91
2023-01-02T04:40:43.492Z,100317.69
2023-01-02T04:41:45.682Z,100313.25
2023-01-02T04:42:47.864Z,100319.66
2023-01-02T04:43:51.715Z,100323.25
2023-01-02T04:44:53.915Z,100317.13
2023-01-02T04:45:56.254Z,100320.47
2023-01-02T04:46:58.473Z,100322.69
2023-01-02T04:48:00.809Z,100321.56
2023-01-02T04:49:03.167Z,100317.13
2023-01-02T04:50:06.832Z,100322.69
2023-01-02T04:51:08.990Z,100325.19
2023-01-02T04:52:11.237Z,100323.53
2023-01-02T04:53:13.460Z,100324.34
2023-01-02T04:54:15.627Z,100332.94
2023-01-02T04:55:17.851Z,100325.44
2023-01-02T04:56:20.716Z,100325.44
2023-01-02T04:57:24.414Z,100331.28
2023-01-02T04:58:28.178Z,100331.28
2023-01-02T04:59:30.317Z,100334.91
2023-01-02T05:00:32.625Z,100336.03
2023-01-02T05:01:34.959Z,100326.84
2023-01-02T05:02:39.322Z,100330.75
2023-01-02T05:03:43.439Z,100328.78
2023-01-02T05:04:45.629Z,100329.09
2023-01-02T05:05:47.977Z,100327.13
2023-01-02T05:06:50.465Z,100329.91
2023-01-02T05:07:52.634Z,100327.13
2023-01-02T05:08:54.806Z,100324.63
2023-01-02T05:09:57.201Z,100330.47
2023-01-02T05:11:06.231Z,100333.25
2023-01-02T05:12:08.370Z,100338.81
2023-01-02T05:13:10.565Z,100337.94
2023-01-02T05:14:12.772Z,100337.13
2023-01-02T05:15:14.983Z,100330.47
2023-01-02T05:16:17.290Z,100337.41
2023-01-02T05:17:19.472Z,100341.00
2023-01-02T05:18:21.610Z,100339.09
2023-01-02T05:19:23.780Z,100336.56
2023-01-02T05:20:25.954Z,100346.28
2023-01-02T05:21:47.076Z,100347.66
2023-01-02T05:23:08.201Z,100342.97
2023-01-02T05:24:10.370Z,100345.75
2023-01-02T05:25:12.533Z,100346.56
2023-01-02T05:26:16.440Z,100345.75
2023-01-02T05:27:18.705Z,100347.66
2023-01-02T05:28:20.870Z,100336.84
2023-01-02T05:29:25.633Z,100331.31
2023-01-02T05:30:27.956Z,100339.63
2023-01-02T05:31:30.569Z,100326.84
2023-01-02T05:32:32.803Z,100332.41
2023-01-02T05:33:35.079Z,100336.56
2023-01-02T05:34:37.231Z,100335.47
2023-01-02T05:35:39.393Z,100332.16
2023-01-02T05:36:42.237Z,100337.72
2023-01-02T05:37:44.425Z,100324.13
2023-01-02T05:38:46.653Z,100333.56
2023-01-02T05:39:49.075Z,100331.06
2023-01-02T05:41:00.319Z,100335.75
2023-01-02T05:42:02.545Z,100340.50
2023-01-02T05:43:04.760Z,100329.94
2023-01-02T05:44:10.999Z,100332.69
2023-01-02T05:45:13.150Z,100334.94
2023-01-02T05:46:17.735Z,100326.91
2023-01-02T05:47:20.026Z,100330.78
2023-01-02T05:48:22.174Z,100329.94
2023-01-02T05:49:24.348Z,100343.25
2023-01-02T05:50:26.528Z,100341.31
2023-01-02T05:51:28.723Z,100338.00
2023-01-02T05:52:30.906Z,100338.25
2023-01-02T05:53:33.397Z,100337.44
2023-01-02T05:54:35.562Z,100339.66
2023-01-02T05:55:37.805Z,100340.78
2023-01-02T05:56:40.003Z,100333.56
2023-01-02T05:57:42.407Z,100333.84
2023-01-02T05:58:47.063Z,100336.63
2023-01-02T05:59:49.234Z,100330.22
2023-01-02T06:00:51.463Z,100342.44
2023-01-02T06:01:53.786Z,100346.31
2023-01-02T06:02:56.527Z,100342.69
2023-01-02T06:04:00.460Z,100334.38
2023-01-02T06:05:02.697Z,100343.84
2023-01-02T06:06:06.578Z,100350.50
2023-01-02T06:07:08.770Z,100344.38
2023-01-02T06:08:10.965Z,100343.84
2023-01-02T06:09:15.053Z,100347.44
2023-01-02T06:10:17.302Z,100346.84
2023-01-02T06:11:19.708Z,100347.13
2023-01-02T06:12:21.895Z,100350.75
2023-01-02T06:13:24.139Z,100347.44
2023-01-02T06:14:27.945Z,100341.06
2023-01-02T06:15:31.122Z,100344.94
2023-01-02T06:16:36.339Z,100347.72
2023-01-02T06:17:38.656Z,100343.25
2023-01-02T06:18:41.270Z,100345.22
2023-01-02T06:19:50.194Z,100338.28
2023-01-02T06:21:02.107Z,100337.72
2023-01-02T06:22:04.282Z,100330.25
2023-01-02T06:23:06.438Z,100334.94
2023-01-02T06:24:09.955Z,100332.75
2023-01-02T06:25:12.147Z,100334.41
2023-01-02T06:26:18.452Z,100330.50
2023-01-02T06:27:20.613Z,100336.31
2023-01-02T06:28:22.790Z,100332.75
2023-01-02T06:29:25.039Z,100329.97
2023-01-02T06:30:27.241Z,100337.44
2023-01-02T06:31:29.966Z,100336.91
2023-01-02T06:32:32.302Z,100343.81
2023-01-02T06:33:34.852Z,100338.28
2023-01-02T06:34:39.423Z,100343.81
2023-01-02T06:35:41.583Z,100348.50
2023-01-02T06:36:43.802Z,100348.50
2023-01-02T06:37:46.009Z,100346.03
2023-01-02T06:38:48.260Z,100345.47
2023-01-02T06:39:50.572Z,100334.66
2023-01-02T06:40:54.666Z,100339.38
2023-01-02T06:41:56.844Z,100337.41
2023-01-02T06:43:00.331Z,100339.94
2023-01-02T06:44:02.786Z,100338.81
2023-01-02T06:45:05.621Z,100338.25
2023-01-02T06:46:07.826Z,100339.38
2023-01-02T06:47:10.059Z,100336.06
2023-01-02T06:48:12.331Z,100344.63
2023-01-02T06:49:14.579Z,100341.03
2023-01-02T06:50:16.854Z,100337.16
2023-01-02T06:51:21.628Z,100343.50
2023-01-02T06:52:23.976Z,100345.19
2023-01-02T06:53:27.394Z,100340.75
2023-01-02T06:54:29.587Z,100346.28
2023-01-02T06:55:31.780Z,100343.78
2023-01-02T06:56:33.996Z,100341.03
2023-01-02T06:57:36.215Z,100337.44
2023-01-02T06:58:38.807Z,100347.66
2023-01-02T06:59:41.133Z,100352.34
2023-01-02T07:00:43.355Z,100346.81
2023-01-02T07:01:45.701Z,100357.06
2023-01-02T07:02:48.275Z,100355.97
2023-01-02T07:03:50.767Z,100358.19
2023-01-02T07:04:52.948Z,100360.94
2023-01-02T07:06:02.969Z,100367.31
2023-01-02T07:07:05.671Z,100369.50
2023-01-02T07:08:08.387Z,100367.31
2023-01-02T07:09:10.580Z,100368.41
2023-01-02T07:10:12.824Z,100373.13
2023-01-02T07:11:38.574Z,100399.97
2023-01-02T07:12:40.780Z,100378.09
2023-01-02T07:13:44.027Z,100378.94
2023-01-02T07:14:46.297Z,100382.81
2023-01-02T07:15:48.508Z,100386.69
2023-01-02T07:16:51.594Z,100396.94
2023-01-02T07:17:53.833Z,100379.47
2023-01-02T07:18:58.549Z,100396.38
2023-01-02T07:20:02.331Z,100394.97
2023-01-02T07:21:06.441Z,100388.31
2023-01-02T07:22:08.661Z,100392.75
2023-01-02T07:23:10.820Z,100393.03
2023-01-02T07:24:18.214Z,100402.16
2023-01-02T07:25:21.915Z,100388.88
2023-01-02T07:26:24.124Z,100396.59
2023-01-02T07:27:26.291Z,100394.13
2023-01-02T07:28:30.435Z,100404.63
2023-01-02T07:29:32.636Z,100410.72
2023-01-02T07:30:34.845Z,100399.34
2023-01-02T07:31:37.084Z,100405.44
2023-01-02T07:32:39.350Z,100404.84
2023-01-02T07:33:41.943Z,100405.13
2023-01-02T07:34:44.189Z,100410.09
2023-01-02T07:35:46.372Z,100411.22
2023-01-02T07:36:48.533Z,100414.25
2023-01-02T07:37:51.664Z,100405.91
2023-01-02T07:38:55.470Z,100407.84
2023-01-02T07:39:57.723Z,100407.03
2023-01-02T07:40:59.930Z,100402.28
2023-01-02T07:42:02.240Z,100419.19
2023-01-02T07:43:04.518Z,100414.16
2023-01-02T07:44:06.831Z,100410.03
2023-01-02T07:45:09.468Z,100403.63
2023-01-02T07:46:15.415Z,100407.78
2023-01-02T07:47:20.463Z,100410.03
2023-01-02T07:48:22.657Z,100416.34
2023-01-02T07:49:27.837Z,100417.72
2023-01-02T07:50:30.750Z,100425.19
2023-01-02T07:51:33.426Z,100414.66
2023-01-02T07:52:35.620Z,100419.09
2023-01-02T07:53:38.713Z,100419.34
2023-01-02T07:54:40.871Z,100416.59
2023-01-02T07:55:43.081Z,100423.22
2023-01-02T07:56:45.278Z,100415.47
2023-01-02T07:57:48.391Z,100419.88
2023-01-02T07:58:51.040Z,100417.66
2023-01-02T07:59:53.205Z,100429.00
2023-01-02T08:01:01.467Z,100422.59
2023-01-02T08:02:10.861Z,100430.38
2023-01-02T08:03:16.155Z,100428.69
2023-01-02T08:04:18.932Z,100425.38
2023-01-02T08:05:22.384Z,100422.59
2023-01-02T08:06:24.643Z,100426.97
2023-01-02T08:07:26.823Z,100431.97
2023-01-02T08:08:29.038Z,100427.53
2023-01-02T08:09:31.295Z,100436.09
2023-01-02T08:10:33.478Z,100427.22
2023-01-02T08:11:35.757Z,100437.47
2023-01-02T08:12:38.239Z,100436.88
2023-01-02T08:13:41.103Z,100439.09
2023-01-02T08:14:43.301Z,100440.19
2023-01-02T08:15:46.494Z,100433.53
2023-01-02T08:16:49.232Z,100438.19
2023-01-02T08:17:51.701Z,100444.00
2023-01-02T08:18:57.481Z,100444.28
2023-01-02T08:20:06.816Z,100452.50
2023-01-02T08:21:10.862Z,100444.19
2023-01-02T08:22:13.099Z,100448.06
2023-01-02T08:23:16.181Z,100453.59
2023-01-02T08:24:18.407Z,100450.28
2023-01-02T08:25:20.621Z,100449.69
2023-01-02T08:26:24.148Z,100453.28
2023-01-02T08:27:28.653Z,100455.50
2023-01-02T08:28:31.323Z,100454.09
2023-01-02T08:29:33.493Z,100454.91
2023-01-02T08:30:35.733Z,100452.41
2023-01-02T08:31:44.070Z,100447.97
2023-01-02T08:32:46.545Z,100446.56
2023-01-02T08:33:48.896Z,100452.09
2023-01-02T08:34:51.090Z,100464.28
2023-01-02T08:35:53.943Z,100463.16
2023-01-02T08:36:56.118Z,100452.38
2023-01-02T08:37:58.340Z,100453.44
2023-01-02T08:39:00.577Z,100461.19
2023-01-02T08:40:02.931Z,100456.75
2023-01-02T08:41:05.422Z,100453.41
2023-01-02T08:42:10.936Z,100451.22
2023-01-02T08:43:13.130Z,100452.31
2023-01-02T08:44:16.355Z,100450.63
2023-01-02T08:45:18.828Z,100459.19
2023-01-02T08:46:21.019Z,100461.16
2023-01-02T08:47:23.212Z,100464.72
2023-01-02T08:48:25.411Z,100459.16
2023-01-02T08:49:27.610Z,100459.75
2023-01-02T08:50:29.811Z,100466.34
2023-01-02T08:51:31.999Z,100461.66
2023-01-02T08:52:34.288Z,100462.50
2023-01-02T08:53:36.577Z,100460.81
2023-01-02T08:54:38.792Z,100456.97
2023-01-02T08:55:40.981Z,100462.78
2023-01-02T08:56:43.165Z,100463.00
2023-01-02T08:57:45.368Z,100455.84
2023-01-02T08:59:02.833Z,100456.66
2023-01-02T09:00:05.852Z,100447.53
2023-01-02T09:01:08.067Z,100454.97
2023-01-02T09:02:15.117Z,100462.44
2023-01-02T09:03:17.532Z,100474.34
2023-01-02T09:04:20.757Z,100467.97
2023-01-02T09:05:23.030Z,100463.53
2023-01-02T09:06:27.609Z,100473.50
2023-01-02T09:07:32.550Z,100472.66
2023-01-02T09:08:34.731Z,100471.56
2023-01-02T09:09:37.046Z,100468.81
2023-01-02T09:10:39.212Z,100471.84
2023-01-02T09:11:51.089Z,100476.28
2023-01-02T09:12:53.537Z,100476.28
2023-01-02T09:13:57.920Z,100480.13
2023-01-02T09:15:00.111Z,100472.66
2023-01-02T09:16:02.386Z,100475.41
2023-01-02T09:17:04.765Z,100474.59
2023-01-02T09:18:06.947Z,100468.25
2023-01-02T09:19:09.985Z,100466.56
2023-01-02T09:20:12.223Z,100469.34
2023-01-02T09:21:17.343Z,100462.72
2023-01-02T09:22:19.541Z,100457.19
2023-01-02T09:23:21.810Z,100456.06
2023-01-02T09:24:23.981Z,100454.16
2023-01-02T09:25:26.147Z,100460.25
2023-01-02T09:26:28.386Z,100459.41
2023-01-02T09:27:30.579Z,100461.91
2023-01-02T09:28:34.679Z,100463.28
2023-01-02T09:29:36.887Z,100466.03
2023-01-02T09:30:39.200Z,100480.72
2023-01-02T09:31:41.927Z,100470.47
2023-01-02T09:32:44.087Z,100467.72
2023-01-02T09:33:47.477Z,100470.47
2023-01-02T09:34:50.524Z,100481.53
2023-01-02T09:35:52.745Z,100483.47
2023-01-02T09:36:54.965Z,100480.72
2023-01-02T09:37:57.239Z,100478.50
2023-01-02T09:39:01.211Z,100480.44
2023-01-02T09:40:03.726Z,100476.59
2023-01-02T09:41:15.533Z,100473.81
2023-01-02T09:42:17.963Z,100479.09
2023-01-02T09:43:25.958Z,100487.38
2023-01-02T09:44:45.965Z,100487.38
2023-01-02T09:45:49.835Z,100485.72
2023-01-02T09:46:52.013Z,100483.75
2023-01-02T09:47:59.064Z,100483.53
2023-01-02T09:49:02.707Z,100489.88
2023-01-02T09:50:11.399Z,100483.53
2023-01-02T09:51:13.666Z,100486.84
2023-01-02T09:52:33.914Z,100468.59
2023-01-02T09:53:36.158Z,100465.81
2023-01-02T09:54:39.595Z,100472.19
2023-01-02T09:56:21.124Z,100475.53
2023-01-02T09:57:27.687Z,100469.16
2023-01-02T09:58:50.772Z,100474.44
2023-01-02T10:00:01.444Z,100466.13
2023-01-02T10:01:05.613Z,100465.31
2023-01-02T10:02:43.200Z,100463.91
2023-01-02T10:03:57.423Z,100466.41
2023-01-02T10:04:59.563Z,100461.97
2023-01-02T10:06:06.119Z,100465.00
2023-01-02T10:07:11.094Z,100463.06
2023-01-02T10:08:41.319Z,100456.44
2023-01-02T10:10:00.854Z,100456.69
2023-01-02T10:11:29.257Z,100454.75
2023-01-02T10:13:00.842Z,100449.22
2023-01-02T10:14:19.399Z,100452.00
2023-01-02T10:15:27.358Z,100460.06
2023-01-02T10:16:36.585Z,100465.59
2023-01-02T10:17:46.251Z,100469.16
2023-01-02T10:18:55.150Z,100474.69
2023-01-02T10:20:06.664Z,100474.69
2023-01-02T10:21:15.135Z,100471.13
2023-01-02T10:22:27.525Z,100463.63
2023-01-02T10:23:42.652Z,100460.88
2023-01-02T10:24:56.183Z,100465.31
2023-01-02T10:26:02.507Z,100459.78
2023-01-02T10:27:11.745Z,100453.16
2023-01-02T10:28:24.816Z,100459.25
2023-01-02T10:29:43.345Z,100470.03
2023-01-02T10:30:55.569Z,100461.75
2023-01-02T10:32:04.301Z,100463.69
2023-01-02T10:33:18.627Z,100453.22
2023-01-02T10:34:23.983Z,100453.22
2023-01-02T10:35:37.561Z,100448.25
2023-01-02T10:36:41.811Z,100455.44
2023-01-02T10:37:44.090Z,100454.59
2023-01-02T10:38:46.380Z,100445.19
2023-01-02T10:39:50.573Z,100453.50
2023-01-02T10:40:53.919Z,100453.22
2023-01-02T10:41:58.789Z,100454.09
2023-01-02T10:43:02.263Z,100450.47
2023-01-02T10:44:10.742Z,100443.28
2023-01-02T10:45:16.572Z,100445.78
2023-01-02T10:46:18.809Z,100443.03
2023-01-02T10:47:36.077Z,100445.50
2023-01-02T10:48:38.782Z,100449.69
2023-01-02T10:49:43.375Z,100441.66
2023-01-02T10:50:50.281Z,100434.19
2023-01-02T10:52:05.896Z,100439.72
2023-01-02T10:53:19.198Z,100440.81
2023-01-02T10:54:21.480Z,100438.63
2023-01-02T10:55:34.157Z,100440.31
2023-01-02T10:56:39.727Z,100434.50
2023-01-02T10:57:46.134Z,100430.91
2023-01-02T10:58:50.536Z,100433.41
2023-01-02T10:59:58.746Z,100435.31
2023-01-02T11:01:19.504Z,100430.63
2023-01-02T11:02:49.460Z,100428.97
2023-01-02T11:03:54.509Z,100423.16
2023-01-02T11:05:01.252Z,100428.97
2023-01-02T11:06:25.650Z,100430.63
2023-01-02T11:07:26.869Z,100425.09
2023-01-02T11:08:41.046Z,100421.25
2023-01-02T11:09:55.762Z,100419.56
2023-01-02T11:11:01.677Z,100430.38
2023-01-02T11:12:12.637Z,100424.25
2023-01-02T11:13:20.803Z,100427.03
2023-01-02T11:14:34.773Z,100421.75
2023-01-02T11:16:13.221Z,100419.00
2023-01-02T11:17:20.130Z,100420.09
2023-01-02T11:18:26.625Z,100420.94
2023-01-02T11:19:30.041Z,100417.31
2023-01-02T11:20:37.480Z,100413.47
2023-01-02T11:21:41.637Z,100421.75
2023-01-02T11:22:43.795Z,100419.00
2023-01-02T11:23:46.129Z,100420.66
2023-01-02T11:25:00.735Z,100416.81
2023-01-02T11:26:08.113Z,100420.13
2023-01-02T11:27:10.340Z,100422.66
2023-01-02T11:28:20.705Z,100404.38
2023-01-02T11:29:30.567Z,100419.88
2023-01-02T11:30:36.476Z,100412.41
2023-01-02T11:31:44.813Z,100423.47
2023-01-02T11:32:47.010Z,100423.25
2023-01-02T11:33:49.634Z,100418.56
2023-01-02T11:35:00.862Z,100428.78
2023-01-02T11:36:02.969Z,100428.50
2023-01-02T11:37:13.936Z,100412.75
2023-01-02T11:38:29.674Z,100419.38
2023-01-02T11:39:34.849Z,100417.19
2023-01-02T11:40:37.075Z,100412.47
2023-01-02T11:42:07.343Z,100416.91
2023-01-02T11:43:30.365Z,100412.47
2023-01-02T11:44:38.294Z,100409.44
2023-01-02T11:45:43.153Z,100407.50
2023-01-02T11:46:46.988Z,100406.69
2023-01-02T11:47:57.324Z,100412.47
2023-01-02T11:49:04.490Z,100412.22
2023-01-02T11:50:11.769Z,100405.84
2023-01-02T11:51:18.927Z,100403.63
2023-01-02T11:52:26.446Z,100410.84
2023-01-02T11:53:37.389Z,100418.06
2023-01-02T11:54:49.992Z,100418.06
2023-01-02T11:56:17.838Z,100418.06
2023-01-02T11:57:34.952Z,100418.88
2023-01-02T11:58:47.528Z,100418.59
2023-01-02T11:59:53.878Z,100420.00
2023-01-02T12:01:04.564Z,100418.38
2023-01-02T12:02:20.512Z,100423.03
2023-01-02T12:03:30.513Z,100415.31
2023-01-02T12:04:33.110Z,100415.06
2023-01-02T12:05:53.141Z,100419.50
2023-01-02T12:07:20.567Z,100420.03
2023-01-02T12:08:44.566Z,100415.38
2023-01-02T12:10:21.258Z,100415.91
2023-01-02T12:11:40.923Z,100419.25
2023-01-02T12:12:52.170Z,100412.91
2023-01-02T12:14:10.126Z,100416.22
2023-01-02T12:15:12.261Z,100413.19
2023-01-02T12:16:47.342Z,100406.28
2023-01-02T12:18:08.923Z,100407.13
2023-01-02T12:19:44.806Z,100411.53
2023-01-02T12:20:57.414Z,100410.16
2023-01-02T12:22:50.082Z,100398.28
2023-01-02T12:24:04.273Z,100404.13
2023-01-02T12:25:34.350Z,100401.06
2023-01-02T12:26:59.326Z,100393.59
2023-01-02T12:28:30.750Z,100394.44
2023-01-02T12:29:47.261Z,100402.19
2023-01-02T12:31:22.633Z,100393.06
2023-01-02T12:32:38.452Z,100395.56
2023-01-02T12:33:46.016Z,100396.16
2023-01-02T12:35:06.488Z,100385.09
2023-01-02T12:36:24.790Z,100389.50
2023-01-02T12:37:49.440Z,100384.81
2023-01-02T12:39:06.890Z,100389.25
2023-01-02T12:40:27.896Z,100395.31
2023-01-02T12:42:01.041Z,100397.00
2023-01-02T12:43:12.657Z,100395.63
2023-01-02T12:44:34.163Z,100389.25
2023-01-02T12:45:47.459Z,100388.16
2023-01-02T12:46:49.628Z,100398.94